Disclaimer

Please do not use the information listed here in-flight or in-navigation, as they are not provided to us by the airports but are provided by volunteers, so they might be outdated.

Search


Regions


Airport information page

No radio frequency information is available.

Airport informations:
Latitude: 16° 07' 00.34" N
Longitude: 103° 46' 25.67" E
Elevation: 451 feet - 137 meters
Operating hours: From sunrise to sunset (SR-SS)
Operating agency: Civil government, landing fees and diplomatic clearance may be required
Timezone: UTC+7
Fuel: N/A

Runway information:
18/36 - 6890 x 148 feet< - >2100 x 45 meters

Recent METARs:
VTUV 210900Z 00005KT 9000 SCT025 33/19 Q1009 NOSIG
VTUV 211000Z 05002KT 9000 FEW025 34/20 Q1009 NOSIG
VTUV 211000Z 05002KT 9000 FEW025 34/20 Q1009 NOSIG

Airport on the map: